createdAt,value
2023-05-20T00:01:03.089Z,11.80
2023-05-20T00:03:30.480Z,11.80
2023-05-20T00:05:57.776Z,11.90
2023-05-20T00:08:24.883Z,11.80
2023-05-20T00:10:52.041Z,11.90
2023-05-20T00:13:19.229Z,11.90
2023-05-20T00:15:46.275Z,11.90
2023-05-20T00:18:13.584Z,11.90
2023-05-20T00:20:40.805Z,11.90
2023-05-20T00:23:07.952Z,11.90
2023-05-20T00:25:35.183Z,11.90
2023-05-20T00:28:02.822Z,11.90
2023-05-20T00:30:30.133Z,12.00
2023-05-20T00:32:57.292Z,12.10
2023-05-20T00:35:24.427Z,12.10
2023-05-20T00:37:51.689Z,12.10
2023-05-20T00:40:19.014Z,12.20
2023-05-20T00:42:46.080Z,12.20
2023-05-20T00:45:13.136Z,12.10
2023-05-20T00:47:40.478Z,12.00
2023-05-20T00:50:08.868Z,11.90
2023-05-20T00:52:37.196Z,11.90
2023-05-20T00:55:04.419Z,12.00
2023-05-20T00:57:31.919Z,12.10
2023-05-20T00:59:59.660Z,12.10
2023-05-20T01:02:27.290Z,12.10
2023-05-20T01:04:56.733Z,12.10
2023-05-20T01:07:25.555Z,12.00
2023-05-20T01:09:54.382Z,11.90
2023-05-20T01:12:28.256Z,11.80
2023-05-20T01:15:12.226Z,11.90
2023-05-20T01:17:47.548Z,11.80
2023-05-20T01:20:15.509Z,11.80
2023-05-20T01:22:56.539Z,11.80
2023-05-20T01:25:25.273Z,11.70
2023-05-20T01:27:54.329Z,11.60
2023-05-20T01:30:22.144Z,11.60
2023-05-20T01:32:55.622Z,11.60
2023-05-20T01:35:23.224Z,11.60
2023-05-20T01:37:52.411Z,11.60
2023-05-20T01:40:19.956Z,11.60
2023-05-20T01:42:53.080Z,11.60
2023-05-20T01:45:20.863Z,11.60
2023-05-20T01:47:48.592Z,11.60
2023-05-20T01:50:15.906Z,11.70
2023-05-20T01:52:43.111Z,11.70
2023-05-20T01:55:10.358Z,11.70
2023-05-20T01:57:37.555Z,11.70
2023-05-20T02:00:06.269Z,11.70
2023-05-20T02:02:33.782Z,11.60
2023-05-20T02:05:01.129Z,11.80
2023-05-20T02:07:28.196Z,11.80
2023-05-20T02:09:55.483Z,11.80
2023-05-20T02:12:22.581Z,11.70
2023-05-20T02:14:50.525Z,11.60
2023-05-20T02:17:18.393Z,11.70
2023-05-20T02:19:46.141Z,11.60
2023-05-20T02:22:14.275Z,11.60
2023-05-20T02:24:43.278Z,11.70
2023-05-20T02:27:10.858Z,11.70
2023-05-20T02:29:37.967Z,11.80
2023-05-20T02:32:05.649Z,11.70
2023-05-20T02:34:33.282Z,11.70
2023-05-20T02:37:00.511Z,11.60
2023-05-20T02:39:28.680Z,11.70
2023-05-20T02:41:56.424Z,11.70
2023-05-20T02:44:23.549Z,11.70
2023-05-20T02:46:50.652Z,11.60
2023-05-20T02:49:17.680Z,11.50
2023-05-20T02:51:44.877Z,11.40
2023-05-20T02:54:12.131Z,11.40
2023-05-20T02:56:39.394Z,11.30
2023-05-20T02:59:07.596Z,11.30
2023-05-20T03:01:36.079Z,11.20
2023-05-20T03:04:04.827Z,11.20
2023-05-20T03:06:32.486Z,11.20
2023-05-20T03:08:59.727Z,11.10
2023-05-20T03:11:26.919Z,11.10
2023-05-20T03:13:54.084Z,11.10
2023-05-20T03:16:21.395Z,11.00
2023-05-20T03:18:49.641Z,11.00
2023-05-20T03:21:16.781Z,11.00
2023-05-20T03:23:43.914Z,11.00
2023-05-20T03:26:11.393Z,11.00
2023-05-20T03:28:38.605Z,11.00
2023-05-20T03:31:06.628Z,11.00
2023-05-20T03:33:35.543Z,11.00
2023-05-20T03:36:03.082Z,11.10
2023-05-20T03:38:31.084Z,11.10
2023-05-20T03:40:58.680Z,11.10
2023-05-20T03:43:27.129Z,11.10
2023-05-20T03:45:54.717Z,11.10
2023-05-20T03:48:22.035Z,11.20
2023-05-20T03:50:49.940Z,11.30
2023-05-20T03:53:17.617Z,11.40
2023-05-20T03:55:44.668Z,11.40
2023-05-20T03:58:13.705Z,11.50
2023-05-20T04:00:41.104Z,11.50
2023-05-20T04:03:08.903Z,11.50
2023-05-20T04:05:37.398Z,11.60
2023-05-20T04:08:07.984Z,11.70
2023-05-20T04:10:35.673Z,11.70
2023-05-20T04:13:02.756Z,11.70
2023-05-20T04:15:30.898Z,11.70
2023-05-20T04:17:58.152Z,11.70
2023-05-20T04:20:25.389Z,11.80
2023-05-20T04:22:52.577Z,11.90
2023-05-20T04:25:20.047Z,11.80
2023-05-20T04:27:48.068Z,11.80
2023-05-20T04:30:17.985Z,11.70
2023-05-20T04:32:45.534Z,11.70
2023-05-20T04:35:13.936Z,11.80
2023-05-20T04:37:42.524Z,11.80
2023-05-20T04:40:10.732Z,11.90
2023-05-20T04:42:37.959Z,11.90
2023-05-20T04:45:06.117Z,11.90
2023-05-20T04:47:39.219Z,11.90
2023-05-20T04:50:11.145Z,11.90
2023-05-20T04:52:39.160Z,12.00
2023-05-20T04:55:10.684Z,12.00
2023-05-20T04:57:41.882Z,12.10
2023-05-20T05:00:10.935Z,12.00
2023-05-20T05:02:38.602Z,12.00
2023-05-20T05:05:06.620Z,12.00
2023-05-20T05:07:33.898Z,12.10
2023-05-20T05:10:01.679Z,12.20
2023-05-20T05:12:28.868Z,12.30
2023-05-20T05:14:56.057Z,12.30
2023-05-20T05:17:23.216Z,12.30
2023-05-20T05:19:50.654Z,12.40
2023-05-20T05:22:17.740Z,12.40
2023-05-20T05:24:44.998Z,12.40
2023-05-20T05:27:12.394Z,12.40
2023-05-20T05:29:39.888Z,12.50
2023-05-20T05:32:07.483Z,12.40
2023-05-20T05:34:34.656Z,12.50
2023-05-20T05:37:01.728Z,12.50
2023-05-20T05:39:28.796Z,12.60
2023-05-20T05:41:56.301Z,12.70
2023-05-20T05:44:23.335Z,12.80
2023-05-20T05:46:50.516Z,12.80
2023-05-20T05:49:17.732Z,12.80
2023-05-20T05:51:44.738Z,12.80
2023-05-20T05:54:11.856Z,12.80
2023-05-20T05:56:39.113Z,12.90
2023-05-20T05:59:06.412Z,12.80
2023-05-20T06:01:33.489Z,12.90
2023-05-20T06:04:00.928Z,12.90
2023-05-20T06:06:28.114Z,12.90
2023-05-20T06:08:56.062Z,13.00
2023-05-20T06:11:24.097Z,13.10
2023-05-20T06:13:51.523Z,13.10
2023-05-20T06:16:18.696Z,13.10
2023-05-20T06:18:53.281Z,13.10
2023-05-20T06:21:20.466Z,13.10
2023-05-20T06:23:47.736Z,13.10
2023-05-20T06:26:14.755Z,13.00
2023-05-20T06:28:42.086Z,13.00
2023-05-20T06:31:09.536Z,13.00
2023-05-20T06:33:36.860Z,13.00
2023-05-20T06:36:04.256Z,13.00
2023-05-20T06:38:31.790Z,13.10
2023-05-20T06:40:59.084Z,13.20
2023-05-20T06:43:26.606Z,13.30
2023-05-20T06:45:54.381Z,13.30
2023-05-20T06:48:21.734Z,13.40
2023-05-20T06:50:49.274Z,13.40
2023-05-20T06:53:17.098Z,13.50
2023-05-20T06:55:44.275Z,13.60
2023-05-20T06:58:11.400Z,13.60
2023-05-20T07:00:39.300Z,13.70
2023-05-20T07:03:06.771Z,13.90
2023-05-20T07:05:34.118Z,14.00
2023-05-20T07:08:01.305Z,14.20
2023-05-20T07:10:28.634Z,14.30
2023-05-20T07:12:56.165Z,14.30
2023-05-20T07:15:23.291Z,14.40
2023-05-20T07:17:50.442Z,14.60
2023-05-20T07:20:17.856Z,14.80
2023-05-20T07:22:45.038Z,15.00
2023-05-20T07:25:12.237Z,15.30
2023-05-20T07:27:39.346Z,15.40
2023-05-20T07:30:07.419Z,15.40
2023-05-20T07:32:34.658Z,15.50
2023-05-20T07:35:01.770Z,15.50
2023-05-20T07:37:28.980Z,15.70
2023-05-20T07:39:56.255Z,15.80
2023-05-20T07:42:23.315Z,15.60
2023-05-20T07:44:50.463Z,15.60
2023-05-20T07:47:17.662Z,15.80
2023-05-20T07:49:44.667Z,16.00
2023-05-20T07:52:11.915Z,16.10
2023-05-20T07:54:39.291Z,16.20
2023-05-20T07:57:31.230Z,16.30
2023-05-20T07:59:58.403Z,16.30
2023-05-20T08:02:26.634Z,16.40
2023-05-20T08:04:53.907Z,16.60
2023-05-20T08:07:25.572Z,16.70
2023-05-20T08:10:14.632Z,16.80
2023-05-20T08:12:41.650Z,16.90
2023-05-20T08:15:09.230Z,17.10
2023-05-20T08:17:36.453Z,16.90
2023-05-20T08:20:04.207Z,16.80
2023-05-20T08:22:31.796Z,16.70
2023-05-20T08:24:58.865Z,16.70
2023-05-20T08:27:26.318Z,16.90
2023-05-20T08:29:53.490Z,16.70
2023-05-20T08:32:20.727Z,16.70
2023-05-20T08:34:49.500Z,16.70
2023-05-20T08:37:16.948Z,17.00
2023-05-20T08:39:46.542Z,17.10
2023-05-20T08:42:13.960Z,17.30
2023-05-20T08:44:42.596Z,17.30
2023-05-20T08:47:11.304Z,17.30
2023-05-20T08:49:39.240Z,17.30
2023-05-20T08:52:09.765Z,17.30
2023-05-20T08:54:48.608Z,17.50
2023-05-20T08:57:16.092Z,17.70
2023-05-20T08:59:44.876Z,17.90
2023-05-20T09:02:12.575Z,18.00
2023-05-20T09:04:39.862Z,18.10
2023-05-20T09:07:07.127Z,18.20
2023-05-20T09:09:35.404Z,18.30
2023-05-20T09:12:03.908Z,18.50
2023-05-20T09:14:32.068Z,18.60
2023-05-20T09:16:59.439Z,18.60
2023-05-20T09:19:26.950Z,19.00
2023-05-20T09:21:58.527Z,19.10
2023-05-20T09:24:27.127Z,19.30
2023-05-20T09:26:54.592Z,19.60
2023-05-20T09:29:24.763Z,19.20
2023-05-20T09:31:52.022Z,19.10
2023-05-20T09:34:21.311Z,19.10
2023-05-20T09:36:51.167Z,19.10
2023-05-20T09:39:26.023Z,19.20
2023-05-20T09:42:03.945Z,19.50
2023-05-20T09:44:32.415Z,19.40
2023-05-20T09:47:01.178Z,19.40
2023-05-20T09:49:30.891Z,19.70
2023-05-20T09:52:00.272Z,20.00
2023-05-20T09:54:30.006Z,20.20
2023-05-20T09:56:59.767Z,20.40
2023-05-20T09:59:28.532Z,20.20
2023-05-20T10:01:55.676Z,19.90
2023-05-20T10:04:25.068Z,19.80
2023-05-20T10:07:00.946Z,19.60
2023-05-20T10:10:07.049Z,19.40
2023-05-20T10:12:43.836Z,19.20
2023-05-20T10:15:21.999Z,19.20
2023-05-20T10:18:12.896Z,19.20
2023-05-20T10:20:49.397Z,19.50
2023-05-20T10:23:30.459Z,19.90
2023-05-20T10:25:58.938Z,20.00
2023-05-20T10:28:36.468Z,19.80
2023-05-20T10:31:15.515Z,19.90
2023-05-20T10:33:46.998Z,20.10
2023-05-20T10:36:31.976Z,20.00
2023-05-20T10:39:00.059Z,19.90
2023-05-20T10:41:29.144Z,20.30
2023-05-20T10:44:04.058Z,20.50
2023-05-20T10:46:38.537Z,20.80
2023-05-20T10:49:26.726Z,20.80
2023-05-20T10:51:55.685Z,20.70
2023-05-20T10:54:23.424Z,20.60
2023-05-20T10:56:54.917Z,20.80
2023-05-20T10:59:22.843Z,21.20
2023-05-20T11:01:50.724Z,21.20
2023-05-20T11:04:19.784Z,21.10
2023-05-20T11:06:54.469Z,21.30
2023-05-20T11:09:22.483Z,21.40
2023-05-20T11:11:51.884Z,21.40
2023-05-20T11:14:20.339Z,21.40
2023-05-20T11:16:51.970Z,21.60
2023-05-20T11:19:19.400Z,21.80
2023-05-20T11:21:47.124Z,21.90
2023-05-20T11:24:14.468Z,22.00
2023-05-20T11:26:41.680Z,21.80
2023-05-20T11:29:09.161Z,21.60
2023-05-20T11:31:39.181Z,21.50
2023-05-20T11:34:06.341Z,21.80
2023-05-20T11:36:33.504Z,21.80
2023-05-20T11:39:01.035Z,21.70
2023-05-20T11:41:28.814Z,22.00
2023-05-20T11:43:59.796Z,22.20
2023-05-20T11:46:28.237Z,22.40
2023-05-20T11:48:56.108Z,22.70
2023-05-20T11:51:30.385Z,22.90
2023-05-20T11:54:04.190Z,23.00
2023-05-20T11:56:33.981Z,22.70
2023-05-20T11:59:01.774Z,22.90
2023-05-20T12:01:41.216Z,22.70
2023-05-20T12:04:09.339Z,22.60
2023-05-20T12:06:40.294Z,22.60
2023-05-20T12:09:08.923Z,22.40
2023-05-20T12:11:37.838Z,22.20
2023-05-20T12:14:05.080Z,22.10
2023-05-20T12:16:33.634Z,22.10
2023-05-20T12:19:01.570Z,22.40
2023-05-20T12:21:32.237Z,22.60
2023-05-20T12:24:00.137Z,22.80
2023-05-20T12:26:28.548Z,22.80
2023-05-20T12:28:56.178Z,22.80
2023-05-20T12:31:23.293Z,22.90
2023-05-20T12:33:50.759Z,23.10
2023-05-20T12:36:19.698Z,23.20
2023-05-20T12:38:47.163Z,22.90
2023-05-20T12:41:14.389Z,23.10
2023-05-20T12:43:41.727Z,23.40
2023-05-20T12:46:08.961Z,23.80
2023-05-20T12:48:37.042Z,24.00
2023-05-20T12:51:04.437Z,24.00
2023-05-20T12:53:31.576Z,24.20
2023-05-20T12:55:58.741Z,24.20
2023-05-20T12:58:25.916Z,24.00
2023-05-20T13:00:53.277Z,23.80
2023-05-20T13:03:20.850Z,23.30
2023-05-20T13:05:47.949Z,23.10
2023-05-20T13:08:15.194Z,23.20
2023-05-20T13:10:42.307Z,23.30
2023-05-20T13:13:09.524Z,23.40
2023-05-20T13:15:36.964Z,23.40
2023-05-20T13:18:06.879Z,23.30
2023-05-20T13:20:35.040Z,23.30
2023-05-20T13:23:02.548Z,23.20
2023-05-20T13:25:29.733Z,23.10
2023-05-20T13:27:56.754Z,23.20
2023-05-20T13:30:23.771Z,23.30
2023-05-20T13:32:51.789Z,23.40
2023-05-20T13:35:18.980Z,23.40
2023-05-20T13:37:46.081Z,23.60
2023-05-20T13:40:13.596Z,23.60
2023-05-20T13:42:40.707Z,23.50
2023-05-20T13:45:08.278Z,23.50
2023-05-20T13:47:35.290Z,23.60
2023-05-20T13:50:03.430Z,23.70
2023-05-20T13:52:30.579Z,23.60
2023-05-20T13:54:57.715Z,23.70
2023-05-20T13:57:24.970Z,23.70
2023-05-20T13:59:52.312Z,23.70
2023-05-20T14:02:19.613Z,23.70
2023-05-20T14:04:47.242Z,23.70
2023-05-20T14:07:14.411Z,23.90
2023-05-20T14:09:41.644Z,24.20
2023-05-20T14:12:09.328Z,24.20
2023-05-20T14:14:36.569Z,24.10
2023-05-20T14:17:03.924Z,23.80
2023-05-20T14:19:31.129Z,23.60
2023-05-20T14:22:01.146Z,23.70
2023-05-20T14:24:28.269Z,23.70
2023-05-20T14:26:55.641Z,23.60
2023-05-20T14:29:22.901Z,23.40
2023-05-20T14:31:50.137Z,23.20
2023-05-20T14:34:17.717Z,23.10
2023-05-20T14:36:44.779Z,23.00
2023-05-20T14:39:11.864Z,23.20
2023-05-20T14:41:38.956Z,23.40
2023-05-20T14:44:06.131Z,23.60
2023-05-20T14:46:33.464Z,23.70
2023-05-20T14:49:00.922Z,23.70
2023-05-20T14:51:27.999Z,23.60
2023-05-20T14:53:55.108Z,23.60
2023-05-20T14:56:36.911Z,23.90
2023-05-20T14:59:04.169Z,24.00
2023-05-20T15:01:31.433Z,24.10
2023-05-20T15:03:58.681Z,24.10
2023-05-20T15:06:26.470Z,24.10
2023-05-20T15:08:53.639Z,24.00
2023-05-20T15:11:21.550Z,23.80
2023-05-20T15:13:48.568Z,23.90
2023-05-20T15:16:15.903Z,24.20
2023-05-20T15:18:43.093Z,24.30
2023-05-20T15:21:10.140Z,24.60
2023-05-20T15:23:37.116Z,24.70
2023-05-20T15:26:04.452Z,24.40
2023-05-20T15:28:31.636Z,24.00
2023-05-20T15:30:58.720Z,23.90
2023-05-20T15:33:25.848Z,24.00
2023-05-20T15:35:52.898Z,24.20
2023-05-20T15:38:19.856Z,24.50
2023-05-20T15:40:47.506Z,24.80
2023-05-20T15:43:14.488Z,25.00
2023-05-20T15:45:41.538Z,25.20
2023-05-20T15:48:08.882Z,25.60
2023-05-20T15:50:37.135Z,25.50
2023-05-20T15:53:09.726Z,25.40
2023-05-20T15:55:37.043Z,25.00
2023-05-20T15:58:04.003Z,24.80
2023-05-20T16:00:31.440Z,24.80
2023-05-20T16:02:59.011Z,24.70
2023-05-20T16:05:26.297Z,24.60
2023-05-20T16:07:53.770Z,24.40
2023-05-20T16:10:20.730Z,24.60
2023-05-20T16:12:48.019Z,24.90
2023-05-20T16:15:15.548Z,25.00
2023-05-20T16:17:42.660Z,25.20
2023-05-20T16:20:09.939Z,25.20
2023-05-20T16:22:36.934Z,24.90
2023-05-20T16:25:04.395Z,24.60
2023-05-20T16:27:32.511Z,24.70
2023-05-20T16:29:59.683Z,24.90
2023-05-20T16:32:27.161Z,25.30
2023-05-20T16:34:54.872Z,25.40
2023-05-20T16:37:22.089Z,25.40
2023-05-20T16:39:49.076Z,25.30
2023-05-20T16:42:16.035Z,25.30
2023-05-20T16:44:42.938Z,25.40
2023-05-20T16:47:10.017Z,25.20
2023-05-20T16:49:37.188Z,24.70
2023-05-20T16:52:04.882Z,24.40
2023-05-20T16:54:32.690Z,24.20
2023-05-20T16:56:59.705Z,24.20
2023-05-20T16:59:30.112Z,24.20
2023-05-20T17:01:57.608Z,24.20
2023-05-20T17:04:24.758Z,24.20
2023-05-20T17:06:51.793Z,24.20
2023-05-20T17:09:18.953Z,24.10
2023-05-20T17:11:45.937Z,24.00
2023-05-20T17:14:12.884Z,23.90
2023-05-20T17:16:39.924Z,23.90
2023-05-20T17:19:07.186Z,23.90
2023-05-20T17:21:35.045Z,23.80
2023-05-20T17:24:02.222Z,23.70
2023-05-20T17:26:29.847Z,23.60
2023-05-20T17:28:56.947Z,23.60
2023-05-20T17:31:23.904Z,23.60
2023-05-20T17:33:50.959Z,23.50
2023-05-20T17:36:18.126Z,23.50
2023-05-20T17:38:45.041Z,23.50
2023-05-20T17:41:12.117Z,23.50
2023-05-20T17:43:39.247Z,23.40
2023-05-20T17:46:06.557Z,23.50
2023-05-20T17:48:33.595Z,23.60
2023-05-20T17:51:00.557Z,23.50
2023-05-20T17:53:27.878Z,23.40
2023-05-20T17:55:54.982Z,23.20
2023-05-20T17:58:26.784Z,23.10
2023-05-20T18:00:54.346Z,23.00
2023-05-20T18:03:23.276Z,22.90
2023-05-20T18:05:50.480Z,22.80
2023-05-20T18:08:19.133Z,22.80
2023-05-20T18:10:46.525Z,22.70
2023-05-20T18:13:14.022Z,22.70
2023-05-20T18:15:41.249Z,22.50
2023-05-20T18:18:08.451Z,22.50
2023-05-20T18:20:35.785Z,22.40
2023-05-20T18:23:03.098Z,22.40
2023-05-20T18:25:32.789Z,22.40
2023-05-20T18:27:59.830Z,22.30
2023-05-20T18:30:30.789Z,22.10
2023-05-20T18:33:06.992Z,22.10
2023-05-20T18:35:34.058Z,22.10
2023-05-20T18:38:01.319Z,22.00
2023-05-20T18:40:31.298Z,22.00
2023-05-20T18:42:59.142Z,21.90
2023-05-20T18:45:26.809Z,21.80
2023-05-20T18:47:54.689Z,21.70
2023-05-20T18:50:21.873Z,21.50
2023-05-20T18:52:48.842Z,21.30
2023-05-20T18:55:16.170Z,21.30
2023-05-20T18:57:43.857Z,21.20
2023-05-20T19:00:12.569Z,21.20
2023-05-20T19:02:41.180Z,21.00
2023-05-20T19:05:10.011Z,21.00
2023-05-20T19:07:38.440Z,20.90
2023-05-20T19:10:06.424Z,20.90
2023-05-20T19:12:33.543Z,20.90
2023-05-20T19:15:01.502Z,20.80
2023-05-20T19:17:28.511Z,20.80
2023-05-20T19:19:55.629Z,20.80
2023-05-20T19:22:52.801Z,20.70
2023-05-20T19:25:20.220Z,20.50
2023-05-20T19:27:47.521Z,20.50
2023-05-20T19:30:14.962Z,20.40
2023-05-20T19:32:42.049Z,20.40
2023-05-20T19:35:09.402Z,20.40
2023-05-20T19:37:36.499Z,20.40
2023-05-20T19:40:04.075Z,20.40
2023-05-20T19:42:31.073Z,20.30
2023-05-20T19:44:58.106Z,20.30
2023-05-20T19:47:25.066Z,20.20
2023-05-20T19:49:52.022Z,20.10
2023-05-20T19:52:19.432Z,20.10
2023-05-20T19:55:12.373Z,20.00
2023-05-20T19:57:39.335Z,19.90
2023-05-20T20:00:07.458Z,19.90
2023-05-20T20:02:34.439Z,19.80
2023-05-20T20:05:01.792Z,19.80
2023-05-20T20:07:28.977Z,19.90
2023-05-20T20:09:56.267Z,19.80
2023-05-20T20:12:23.707Z,19.80
2023-05-20T20:14:51.390Z,19.70
2023-05-20T20:17:19.611Z,19.70
2023-05-20T20:19:48.733Z,19.70
2023-05-20T20:22:16.793Z,19.60
2023-05-20T20:24:43.784Z,19.60
2023-05-20T20:27:13.343Z,19.70
2023-05-20T20:29:41.396Z,19.60
2023-05-20T20:32:08.924Z,19.50
2023-05-20T20:34:36.261Z,19.40
2023-05-20T20:37:03.217Z,19.40
2023-05-20T20:39:30.183Z,19.30
2023-05-20T20:41:58.773Z,19.30
2023-05-20T20:44:26.754Z,19.30
2023-05-20T20:46:55.060Z,19.20
2023-05-20T20:49:23.250Z,19.20
2023-05-20T20:51:51.005Z,19.10
2023-05-20T20:54:21.092Z,19.10
2023-05-20T20:56:48.438Z,19.10
2023-05-20T20:59:16.143Z,19.00
2023-05-20T21:01:44.773Z,18.90
2023-05-20T21:04:13.799Z,19.00
2023-05-20T21:06:47.556Z,18.90
2023-05-20T21:09:15.374Z,18.80
2023-05-20T21:11:42.485Z,18.70
2023-05-20T21:14:10.192Z,18.60
2023-05-20T21:16:37.444Z,18.70
2023-05-20T21:19:04.859Z,18.70
2023-05-20T21:21:32.003Z,18.70
2023-05-20T21:23:59.213Z,18.70
2023-05-20T21:26:26.679Z,18.60
2023-05-20T21:28:53.897Z,18.60
2023-05-20T21:31:21.044Z,18.60
2023-05-20T21:33:48.051Z,18.50
2023-05-20T21:36:15.256Z,18.50
2023-05-20T21:38:42.361Z,18.40
2023-05-20T21:41:09.459Z,18.40
2023-05-20T21:43:37.444Z,18.20
2023-05-20T21:46:05.799Z,18.20
2023-05-20T21:48:32.827Z,18.20
2023-05-20T21:50:59.804Z,18.10
2023-05-20T21:53:27.045Z,18.00
2023-05-20T21:55:54.152Z,17.90
2023-05-20T21:58:21.156Z,17.90
2023-05-20T22:00:48.099Z,17.80
2023-05-20T22:03:15.245Z,17.80
2023-05-20T22:05:46.024Z,17.80
2023-05-20T22:08:13.675Z,17.70
2023-05-20T22:10:40.866Z,17.60
2023-05-20T22:13:10.990Z,17.60
2023-05-20T22:15:38.263Z,17.60
2023-05-20T22:18:07.809Z,17.60
2023-05-20T22:20:35.161Z,17.50
2023-05-20T22:23:02.153Z,17.50
2023-05-20T22:25:29.247Z,17.40
2023-05-20T22:27:56.654Z,17.40
2023-05-20T22:30:23.724Z,17.30
2023-05-20T22:32:50.646Z,17.20
2023-05-20T22:35:17.655Z,17.10
2023-05-20T22:37:45.083Z,17.10
2023-05-20T22:40:12.394Z,17.20
2023-05-20T22:42:39.546Z,17.10
2023-05-20T22:45:07.630Z,17.10
2023-05-20T22:47:35.048Z,17.00
2023-05-20T22:50:03.227Z,17.00
2023-05-20T22:52:30.687Z,16.90
2023-05-20T22:54:58.585Z,16.90
2023-05-20T22:57:25.856Z,16.80
2023-05-20T22:59:54.058Z,16.80
2023-05-20T23:02:23.378Z,16.90
2023-05-20T23:04:50.987Z,16.80
2023-05-20T23:07:19.453Z,16.70
2023-05-20T23:09:49.297Z,16.60
2023-05-20T23:12:16.440Z,16.60
2023-05-20T23:14:43.431Z,16.50
2023-05-20T23:17:10.922Z,16.50
2023-05-20T23:19:37.940Z,16.40
2023-05-20T23:22:05.584Z,16.40
2023-05-20T23:24:32.580Z,16.30
2023-05-20T23:27:00.210Z,16.30
2023-05-20T23:29:27.334Z,16.20
2023-05-20T23:31:54.352Z,16.20
2023-05-20T23:34:21.983Z,16.20
2023-05-20T23:36:49.961Z,16.20
2023-05-20T23:39:18.319Z,16.20
2023-05-20T23:41:45.657Z,16.30
2023-05-20T23:44:12.702Z,16.20
2023-05-20T23:46:39.813Z,16.20
2023-05-20T23:49:06.998Z,16.20
2023-05-20T23:51:35.544Z,16.10
2023-05-20T23:54:02.680Z,16.10
2023-05-20T23:56:30.007Z,16.00
2023-05-20T23:58:57.891Z,16.00
